createdAt,value
2019-01-29T00:01:23.695Z,95996.24
2019-01-29T00:03:51.377Z,95995.39
2019-01-29T00:06:18.258Z,96005.39
2019-01-29T00:08:44.955Z,96011.16
2019-01-29T00:11:11.810Z,96007.84
2019-01-29T00:13:38.637Z,96010.07
2019-01-29T00:16:05.303Z,96010.10
2019-01-29T00:18:31.996Z,96021.15
2019-01-29T00:20:58.676Z,96019.42
2019-01-29T00:23:25.316Z,96017.17
2019-01-29T00:25:52.225Z,96021.56
2019-01-29T00:28:18.996Z,96020.13
2019-01-29T00:30:46.939Z,96024.30
2019-01-29T00:33:14.139Z,96021.83
2019-01-29T00:35:41.846Z,96024.19
2019-01-29T00:38:11.145Z,96033.11
2019-01-29T00:40:39.367Z,96027.95
2019-01-29T00:43:06.196Z,96028.83
2019-01-29T00:45:33.039Z,96029.33
2019-01-29T00:47:59.642Z,96021.44
2019-01-29T00:50:26.363Z,96028.23
2019-01-29T00:52:53.313Z,96034.67
2019-01-29T00:55:20.023Z,96032.83
2019-01-29T00:57:46.710Z,96035.27
2019-01-29T01:00:13.323Z,96042.11
2019-01-29T01:02:41.226Z,96050.45
2019-01-29T01:05:07.945Z,96049.25
2019-01-29T01:07:34.754Z,96050.31
2019-01-29T01:10:01.415Z,96052.75
2019-01-29T01:12:29.080Z,96054.62
2019-01-29T01:14:55.761Z,96054.55
2019-01-29T01:17:22.724Z,96061.44
2019-01-29T01:19:49.441Z,96060.33
2019-01-29T01:22:16.109Z,96063.75
2019-01-29T01:24:42.826Z,96057.52
2019-01-29T01:27:09.701Z,96060.84
2019-01-29T01:29:36.324Z,96057.45
2019-01-29T01:32:02.986Z,96057.58
2019-01-29T01:34:29.632Z,96064.41
2019-01-29T01:36:57.582Z,96061.14
2019-01-29T01:39:24.570Z,96071.27
2019-01-29T01:41:51.201Z,96065.05
2019-01-29T01:44:17.841Z,96073.73
2019-01-29T01:46:44.849Z,96075.53
2019-01-29T01:49:13.344Z,96075.69
2019-01-29T01:51:40.079Z,96070.05
2019-01-29T01:54:07.509Z,96070.52
2019-01-29T01:56:37.488Z,96075.11
2019-01-29T01:59:04.260Z,96073.22
2019-01-29T02:01:30.919Z,96080.28
2019-01-29T02:03:57.596Z,96075.58
2019-01-29T02:06:24.557Z,96076.02
2019-01-29T02:08:51.200Z,96078.21
2019-01-29T02:11:17.989Z,96079.92
2019-01-29T02:13:44.899Z,96088.47
2019-01-29T02:16:11.551Z,96086.81
2019-01-29T02:18:38.169Z,96094.38
2019-01-29T02:21:05.350Z,96099.36
2019-01-29T02:23:32.278Z,96101.82
2019-01-29T02:25:58.936Z,96106.33
2019-01-29T02:28:25.778Z,96106.33
2019-01-29T02:30:52.709Z,96102.42
2019-01-29T02:33:19.601Z,96106.82
2019-01-29T02:35:46.549Z,96109.85
2019-01-29T02:43:38.157Z,96107.61
2019-01-29T02:46:09.703Z,96119.40
2019-01-29T02:48:36.427Z,96117.35
2019-01-29T02:51:03.260Z,96115.91
2019-01-29T02:53:33.122Z,96114.75
2019-01-29T02:56:00.834Z,96120.44
2019-01-29T02:58:27.678Z,96119.48
2019-01-29T03:00:54.935Z,96117.73
2019-01-29T03:03:24.512Z,96118.06
2019-01-29T03:05:52.882Z,96118.80
2019-01-29T03:08:19.906Z,96117.44
2019-01-29T03:10:46.859Z,96128.50
2019-01-29T03:13:18.098Z,96125.18
2019-01-29T03:15:46.403Z,96123.70
2019-01-29T03:18:13.035Z,96132.53
2019-01-29T03:20:42.920Z,96141.98
2019-01-29T03:23:13.722Z,96128.53
2019-01-29T03:25:43.169Z,96138.41
2019-01-29T03:28:12.086Z,96144.87
2019-01-29T03:30:41.154Z,96143.90
2019-01-29T03:33:12.346Z,96141.59
2019-01-29T03:35:46.917Z,96147.98
2019-01-29T03:38:12.416Z,96152.53
2019-01-29T03:40:39.870Z,96160.48
2019-01-29T03:43:09.502Z,96174.09
2019-01-29T03:45:36.322Z,96162.14
2019-01-29T03:48:05.849Z,96166.68
2019-01-29T03:50:33.600Z,96171.19
2019-01-29T03:53:03.551Z,96179.28
2019-01-29T03:55:30.489Z,96183.88
2019-01-29T03:57:57.262Z,96193.82
2019-01-29T04:00:25.232Z,96202.42
2019-01-29T04:02:53.956Z,96206.17
2019-01-29T04:05:22.124Z,96201.91
2019-01-29T04:07:48.859Z,96207.41
2019-01-29T04:10:19.252Z,96207.02
2019-01-29T04:12:50.575Z,96219.06
2019-01-29T04:15:19.679Z,96216.62
2019-01-29T04:17:49.651Z,96214.87
2019-01-29T04:20:20.952Z,96216.77
2019-01-29T04:22:54.473Z,96215.05
2019-01-29T04:25:22.584Z,96220.63
2019-01-29T04:27:51.458Z,96222.67
2019-01-29T04:30:21.268Z,96222.36
2019-01-29T04:32:50.525Z,96224.02
2019-01-29T04:35:18.362Z,96225.06
2019-01-29T04:37:46.704Z,96232.72
2019-01-29T04:40:13.373Z,96228.52
2019-01-29T04:42:40.017Z,96237.53
2019-01-29T04:45:06.704Z,96232.27
2019-01-29T04:47:33.343Z,96238.73
2019-01-29T04:50:00.234Z,96239.27
2019-01-29T04:52:27.171Z,96240.15
2019-01-29T04:54:54.037Z,96241.72
2019-01-29T04:57:20.793Z,96242.17
2019-01-29T04:59:47.751Z,96247.31
2019-01-29T05:02:14.409Z,96258.28
2019-01-29T05:04:41.421Z,96256.22
2019-01-29T05:07:08.311Z,96255.36
2019-01-29T05:09:35.557Z,96264.19
2019-01-29T05:12:02.553Z,96267.13
2019-01-29T05:14:29.145Z,96264.04
2019-01-29T05:16:55.798Z,96271.48
2019-01-29T05:19:22.760Z,96271.80
2019-01-29T05:21:49.715Z,96275.27
2019-01-29T05:24:18.136Z,96272.14
2019-01-29T05:26:44.852Z,96275.84
2019-01-29T05:29:11.789Z,96274.81
2019-01-29T05:31:38.432Z,96284.86
2019-01-29T05:34:05.324Z,96287.16
2019-01-29T05:36:31.926Z,96284.77
2019-01-29T05:38:58.642Z,96283.69
2019-01-29T05:41:25.373Z,96288.75
2019-01-29T05:43:52.266Z,96290.36
2019-01-29T05:46:18.904Z,96295.03
2019-01-29T05:48:45.824Z,96302.31
2019-01-29T05:51:12.471Z,96304.56
2019-01-29T05:53:39.126Z,96316.57
2019-01-29T05:56:06.291Z,96313.97
2019-01-29T05:58:33.129Z,96315.92
2019-01-29T06:01:00.142Z,96328.78
2019-01-29T06:03:27.153Z,96330.89
2019-01-29T06:05:54.103Z,96341.63
2019-01-29T06:08:21.550Z,96339.55
2019-01-29T06:10:48.320Z,96346.88
2019-01-29T06:13:15.081Z,96344.33
2019-01-29T06:15:41.703Z,96351.47
2019-01-29T06:18:08.463Z,96355.02
2019-01-29T06:20:35.424Z,96354.69
2019-01-29T06:23:02.198Z,96358.88
2019-01-29T06:25:28.928Z,96363.44
2019-01-29T06:27:55.892Z,96366.88
2019-01-29T06:30:22.853Z,96370.56
2019-01-29T06:32:49.466Z,96371.71
2019-01-29T06:35:16.079Z,96375.41
2019-01-29T06:37:43.009Z,96373.98
2019-01-29T06:40:11.373Z,96378.70
2019-01-29T06:42:38.145Z,96387.63
2019-01-29T06:45:08.794Z,96396.37
2019-01-29T06:47:37.385Z,96390.69
2019-01-29T06:50:05.701Z,96394.25
2019-01-29T06:52:32.783Z,96404.33
2019-01-29T06:55:01.318Z,96395.08
2019-01-29T06:57:32.612Z,96401.69
2019-01-29T06:59:59.850Z,96410.16
2019-01-29T07:02:27.753Z,96409.64
2019-01-29T07:04:54.389Z,96417.61
2019-01-29T07:07:23.626Z,96420.05
2019-01-29T07:09:53.181Z,96423.44
2019-01-29T07:12:19.861Z,96433.83
2019-01-29T07:14:46.960Z,96438.69
2019-01-29T07:17:13.835Z,96445.34
2019-01-29T07:19:43.528Z,96443.23
2019-01-29T07:22:14.708Z,96445.84
2019-01-29T07:24:44.247Z,96441.80
2019-01-29T07:27:13.670Z,96450.05
2019-01-29T07:29:40.649Z,96448.28
2019-01-29T07:32:09.823Z,96455.42
2019-01-29T07:34:38.666Z,96454.91
2019-01-29T07:37:09.124Z,96452.95
2019-01-29T07:39:39.642Z,96463.64
2019-01-29T07:42:09.316Z,96457.26
2019-01-29T07:44:39.723Z,96456.37
2019-01-29T07:47:09.629Z,96461.70
2019-01-29T07:49:38.473Z,96464.86
2019-01-29T07:52:05.536Z,96465.28
2019-01-29T07:54:35.127Z,96466.92
2019-01-29T07:57:02.170Z,96474.89
2019-01-29T07:59:33.193Z,96474.88
2019-01-29T08:01:58.230Z,96482.55
2019-01-29T08:04:25.401Z,96480.59
2019-01-29T08:06:52.232Z,96483.50
2019-01-29T08:09:19.888Z,96492.16
2019-01-29T08:11:46.630Z,96498.05
2019-01-29T08:14:13.525Z,96497.55
2019-01-29T08:16:41.417Z,96498.30
2019-01-29T08:19:08.944Z,96501.36
2019-01-29T08:21:35.652Z,96497.05
2019-01-29T08:24:02.561Z,96509.30
2019-01-29T08:26:29.611Z,96507.78
2019-01-29T08:28:56.217Z,96508.95
2019-01-29T08:31:23.085Z,96514.80
2019-01-29T08:33:51.798Z,96521.91
2019-01-29T08:36:20.325Z,96526.74
2019-01-29T08:38:47.095Z,96528.96
2019-01-29T08:41:14.048Z,96531.71
2019-01-29T08:43:40.844Z,96532.97
2019-01-29T08:46:07.879Z,96529.77
2019-01-29T08:48:34.745Z,96529.59
2019-01-29T08:51:01.497Z,96533.73
2019-01-29T08:53:28.226Z,96532.31
2019-01-29T08:55:55.058Z,96532.66
2019-01-29T08:58:26.948Z,96529.70
2019-01-29T09:00:50.549Z,96536.12
2019-01-29T09:03:17.263Z,96536.45
2019-01-29T09:05:44.054Z,96531.23
2019-01-29T09:08:13.069Z,96530.83
2019-01-29T09:10:39.592Z,96530.33
2019-01-29T09:13:06.277Z,96530.63
2019-01-29T09:15:33.280Z,96530.72
2019-01-29T09:18:00.188Z,96529.47
2019-01-29T09:20:26.854Z,96526.09
2019-01-29T09:22:53.460Z,96529.28
2019-01-29T09:25:22.666Z,96529.69
2019-01-29T09:27:50.602Z,96524.84
2019-01-29T09:30:17.339Z,96537.98
2019-01-29T09:32:44.277Z,96543.17
2019-01-29T09:35:10.947Z,96542.06
2019-01-29T09:37:37.643Z,96546.11
2019-01-29T09:40:04.341Z,96545.25
2019-01-29T09:42:31.243Z,96543.84
2019-01-29T09:44:57.904Z,96541.61
2019-01-29T09:47:24.620Z,96547.02
2019-01-29T09:49:51.456Z,96546.41
2019-01-29T09:52:18.266Z,96544.23
2019-01-29T09:54:45.094Z,96546.08
2019-01-29T09:57:11.948Z,96534.97
2019-01-29T09:59:38.590Z,96540.19
2019-01-29T10:02:05.465Z,96542.22
2019-01-29T10:04:32.104Z,96530.55
2019-01-29T10:06:58.777Z,96536.81
2019-01-29T10:09:25.858Z,96531.14
2019-01-29T10:11:52.774Z,96531.23
2019-01-29T10:14:21.337Z,96526.75
2019-01-29T10:16:48.017Z,96530.77
2019-01-29T10:19:14.961Z,96530.25
2019-01-29T10:21:42.001Z,96526.82
2019-01-29T10:24:08.928Z,96530.33
2019-01-29T10:26:35.570Z,96529.31
2019-01-29T10:29:02.368Z,96521.16
2019-01-29T10:31:29.144Z,96523.24
2019-01-29T10:33:56.153Z,96528.98
2019-01-29T10:36:23.571Z,96514.52
2019-01-29T10:38:54.144Z,96518.91
2019-01-29T10:41:21.788Z,96519.36
2019-01-29T10:43:51.185Z,96510.61
2019-01-29T10:46:18.443Z,96505.27
2019-01-29T10:48:45.218Z,96504.06
2019-01-29T10:51:12.068Z,96496.22
2019-01-29T10:53:40.051Z,96495.13
2019-01-29T10:56:06.995Z,96491.23
2019-01-29T10:58:33.635Z,96493.66
2019-01-29T11:01:00.660Z,96486.95
2019-01-29T11:03:27.612Z,96483.73
2019-01-29T11:05:54.976Z,96481.20
2019-01-29T11:08:24.287Z,96485.09
2019-01-29T11:10:53.293Z,96483.13
2019-01-29T11:13:22.919Z,96486.36
2019-01-29T11:15:52.229Z,96486.28
2019-01-29T11:18:21.132Z,96481.25
2019-01-29T11:20:48.222Z,96487.16
2019-01-29T11:23:17.131Z,96482.13
2019-01-29T11:25:46.246Z,96476.55
2019-01-29T11:28:16.443Z,96481.94
2019-01-29T11:30:43.088Z,96483.62
2019-01-29T11:33:10.941Z,96481.58
2019-01-29T11:35:41.596Z,96480.75
2019-01-29T11:38:09.256Z,96480.55
2019-01-29T11:40:36.979Z,96470.45
2019-01-29T11:43:04.318Z,96470.70
2019-01-29T11:45:35.532Z,96472.06
2019-01-29T11:48:03.341Z,96475.22
2019-01-29T11:50:32.867Z,96467.45
2019-01-29T11:53:02.116Z,96467.64
2019-01-29T11:55:36.113Z,96467.28
2019-01-29T11:58:05.977Z,96468.08
2019-01-29T12:00:34.031Z,96461.96
2019-01-29T12:03:01.685Z,96465.20
2019-01-29T12:05:31.007Z,96468.88
2019-01-29T12:07:58.732Z,96464.33
2019-01-29T12:10:28.575Z,96462.34
2019-01-29T12:12:58.444Z,96462.19
2019-01-29T12:15:26.821Z,96461.25
2019-01-29T12:17:58.895Z,96462.27
2019-01-29T12:20:25.727Z,96456.34
2019-01-29T12:22:55.661Z,96445.79
2019-01-29T12:25:25.041Z,96452.50
2019-01-29T12:27:52.762Z,96449.65
2019-01-29T12:30:23.318Z,96442.55
2019-01-29T12:33:07.150Z,96443.34
2019-01-29T12:35:38.762Z,96449.87
2019-01-29T12:38:05.397Z,96451.14
2019-01-29T12:40:32.424Z,96442.95
2019-01-29T12:42:59.389Z,96447.22
2019-01-29T12:45:26.296Z,96445.27
2019-01-29T12:47:58.970Z,96440.55
2019-01-29T12:50:22.593Z,96440.07
2019-01-29T12:52:50.392Z,96451.22
2019-01-29T12:55:18.487Z,96444.77
2019-01-29T12:57:49.276Z,96440.81
2019-01-29T13:00:18.293Z,96442.44
2019-01-29T13:02:46.133Z,96440.46
2019-01-29T13:05:16.209Z,96436.09
2019-01-29T13:07:43.986Z,96439.58
2019-01-29T13:10:11.790Z,96432.45
2019-01-29T13:12:41.333Z,96432.77
2019-01-29T13:15:08.787Z,96429.69
2019-01-29T13:17:38.729Z,96428.61
2019-01-29T13:20:14.687Z,96422.23
2019-01-29T13:22:38.575Z,96427.45
2019-01-29T13:25:11.763Z,96420.50
2019-01-29T13:27:38.987Z,96425.61
2019-01-29T13:30:10.702Z,96426.49
2019-01-29T13:32:41.110Z,96420.95
2019-01-29T13:35:08.428Z,96423.86
2019-01-29T13:37:35.334Z,96419.75
2019-01-29T13:40:06.557Z,96421.00
2019-01-29T13:42:33.569Z,96418.36
2019-01-29T13:45:01.734Z,96416.52
2019-01-29T13:47:32.150Z,96426.20
2019-01-29T13:49:59.678Z,96425.24
2019-01-29T13:52:28.693Z,96424.95
2019-01-29T13:54:59.102Z,96424.58
2019-01-29T14:00:17.474Z,96423.03
2019-01-29T14:05:34.025Z,96421.59
2019-01-29T14:08:02.407Z,96429.00
2019-01-29T14:10:33.994Z,96429.47
2019-01-29T14:13:01.461Z,96419.66
2019-01-29T14:15:30.896Z,96424.76
2019-01-29T14:18:01.473Z,96429.91
2019-01-29T14:20:28.730Z,96422.36
2019-01-29T14:22:59.019Z,96419.81
2019-01-29T14:25:26.178Z,96421.83
2019-01-29T14:27:53.154Z,96421.92
2019-01-29T14:30:22.437Z,96413.68
2019-01-29T14:32:52.489Z,96414.86
2019-01-29T14:35:19.928Z,96414.60
2019-01-29T14:37:46.707Z,96411.28
2019-01-29T14:40:15.776Z,96410.83
2019-01-29T14:42:46.349Z,96409.59
2019-01-29T14:45:17.311Z,96407.20
2019-01-29T14:47:45.030Z,96407.83
2019-01-29T14:50:21.401Z,96413.77
2019-01-29T14:52:43.966Z,96414.59
2019-01-29T14:55:12.129Z,96413.72
2019-01-29T14:57:48.774Z,96412.52
2019-01-29T15:00:12.660Z,96412.05
2019-01-29T15:02:39.275Z,96412.23
2019-01-29T15:05:06.064Z,96405.37
2019-01-29T15:07:33.030Z,96410.94
2019-01-29T15:10:00.275Z,96408.20
2019-01-29T15:12:29.552Z,96407.91
2019-01-29T15:14:57.581Z,96413.67
2019-01-29T15:17:26.685Z,96412.70
2019-01-29T15:20:00.134Z,96414.64
2019-01-29T15:22:28.409Z,96411.78
2019-01-29T15:24:59.046Z,96411.17
2019-01-29T15:27:28.938Z,96410.69
2019-01-29T15:32:44.715Z,96413.13
2019-01-29T15:35:12.414Z,96415.30
2019-01-29T15:37:40.634Z,96417.77
2019-01-29T15:40:09.402Z,96415.25
2019-01-29T15:45:27.831Z,96410.44
2019-01-29T15:48:14.073Z,96408.84
2019-01-29T15:50:42.140Z,96412.57
2019-01-29T15:53:10.386Z,96417.64
2019-01-29T15:55:40.578Z,96422.06
2019-01-29T15:58:08.225Z,96427.02
2019-01-29T16:00:38.818Z,96423.06
2019-01-29T16:03:09.067Z,96418.83
2019-01-29T16:05:36.734Z,96419.74
2019-01-29T16:08:04.444Z,96428.23
2019-01-29T16:10:39.543Z,96421.75
2019-01-29T16:13:01.922Z,96428.92
2019-01-29T16:15:33.003Z,96426.83
2019-01-29T16:18:00.450Z,96429.84
2019-01-29T16:20:29.035Z,96435.41
2019-01-29T16:22:59.899Z,96432.02
2019-01-29T16:25:31.643Z,96435.70
2019-01-29T16:27:59.543Z,96438.28
2019-01-29T16:30:30.863Z,96436.23
2019-01-29T16:32:58.736Z,96437.02
2019-01-29T16:35:27.013Z,96442.95
2019-01-29T16:37:53.716Z,96445.00
2019-01-29T16:40:20.821Z,96442.70
2019-01-29T16:42:47.769Z,96445.78
2019-01-29T16:45:15.023Z,96446.32
2019-01-29T16:47:41.893Z,96450.13
2019-01-29T16:50:08.742Z,96448.34
2019-01-29T16:52:35.517Z,96450.03
2019-01-29T16:55:02.236Z,96453.00
2019-01-29T16:57:31.787Z,96446.32
2019-01-29T16:59:57.473Z,96448.41
2019-01-29T17:02:24.160Z,96459.42
2019-01-29T17:04:50.991Z,96452.86
2019-01-29T17:07:18.010Z,96450.63
2019-01-29T17:09:44.702Z,96455.80
2019-01-29T17:12:11.445Z,96453.63
2019-01-29T17:14:38.136Z,96462.22
2019-01-29T17:17:04.772Z,96460.84
2019-01-29T17:19:31.423Z,96458.02
2019-01-29T17:21:58.352Z,96461.02
2019-01-29T17:24:25.343Z,96455.33
2019-01-29T17:26:52.284Z,96458.44
2019-01-29T17:29:18.883Z,96452.16
2019-01-29T17:31:45.525Z,96455.33
2019-01-29T17:34:12.378Z,96455.41
2019-01-29T17:36:39.447Z,96456.97
2019-01-29T17:39:06.498Z,96453.05
2019-01-29T17:41:33.865Z,96453.56
2019-01-29T17:44:00.504Z,96452.38
2019-01-29T17:46:27.916Z,96457.45
2019-01-29T17:48:54.514Z,96461.66
2019-01-29T17:51:21.440Z,96457.41
2019-01-29T17:53:48.070Z,96465.00
2019-01-29T17:56:15.017Z,96461.33
2019-01-29T17:58:41.871Z,96461.83
2019-01-29T18:01:08.724Z,96462.53
2019-01-29T18:03:35.861Z,96462.56
2019-01-29T18:06:02.948Z,96462.97
2019-01-29T18:08:29.782Z,96463.27
2019-01-29T18:10:58.157Z,96459.05
2019-01-29T18:13:24.873Z,96463.64
2019-01-29T18:15:51.843Z,96455.30
2019-01-29T18:18:18.736Z,96459.95
2019-01-29T18:20:45.930Z,96454.97
2019-01-29T18:23:12.921Z,96454.23
2019-01-29T18:25:39.563Z,96454.98
2019-01-29T18:28:08.516Z,96453.97
2019-01-29T18:30:34.806Z,96457.16
2019-01-29T18:33:01.694Z,96452.94
2019-01-29T18:35:28.640Z,96457.88
2019-01-29T18:37:56.374Z,96453.79
2019-01-29T18:40:23.356Z,96450.12
2019-01-29T18:43:05.264Z,96446.17
2019-01-29T18:48:12.485Z,96449.37
2019-01-29T18:50:42.036Z,96447.11
2019-01-29T18:53:09.789Z,96445.80
2019-01-29T18:55:40.885Z,96443.23
2019-01-29T18:58:12.096Z,96443.27
2019-01-29T19:00:40.546Z,96436.85
2019-01-29T19:03:07.872Z,96443.75
2019-01-29T19:05:46.128Z,96444.98
2019-01-29T19:08:18.062Z,96452.34
2019-01-29T19:10:47.903Z,96449.35
2019-01-29T19:13:17.484Z,96444.02
2019-01-29T19:15:44.099Z,96445.66
2019-01-29T19:18:13.746Z,96444.81
2019-01-29T19:20:40.379Z,96444.02
2019-01-29T19:23:13.476Z,96446.49
2019-01-29T19:25:40.298Z,96445.05
2019-01-29T19:28:07.998Z,96443.79
2019-01-29T19:33:22.501Z,96451.72
2019-01-29T19:35:50.207Z,96446.91
2019-01-29T19:38:18.129Z,96443.92
2019-01-29T19:40:45.838Z,96443.36
2019-01-29T19:43:16.092Z,96447.20
2019-01-29T19:45:46.013Z,96443.83
2019-01-29T19:48:15.506Z,96442.63
2019-01-29T19:50:42.625Z,96436.33
2019-01-29T19:53:10.608Z,96442.80
2019-01-29T19:55:38.772Z,96431.20
2019-01-29T19:58:09.303Z,96440.56
2019-01-29T20:00:37.538Z,96435.69
2019-01-29T20:03:08.961Z,96436.80
2019-01-29T20:05:37.147Z,96428.87
2019-01-29T20:08:06.531Z,96435.50
2019-01-29T20:10:37.587Z,96435.46
2019-01-29T20:13:06.841Z,96433.41
2019-01-29T20:15:35.762Z,96432.56
2019-01-29T20:18:05.951Z,96433.87
2019-01-29T20:20:36.918Z,96435.55
2019-01-29T20:23:08.463Z,96429.13
2019-01-29T20:25:36.353Z,96438.66
2019-01-29T20:28:06.644Z,96438.17
2019-01-29T20:30:38.998Z,96434.69
2019-01-29T20:33:08.655Z,96438.05
2019-01-29T20:35:37.315Z,96440.02
2019-01-29T20:40:36.025Z,96444.86
2019-01-29T20:45:51.527Z,96435.42
2019-01-29T20:48:22.992Z,96429.39
2019-01-29T20:50:54.140Z,96425.51
2019-01-29T20:53:34.734Z,96423.47
2019-01-29T20:56:02.206Z,96429.93
2019-01-29T20:58:30.137Z,96414.00
2019-01-29T21:01:00.067Z,96418.92
2019-01-29T21:03:26.446Z,96416.88
2019-01-29T21:05:53.455Z,96418.19
2019-01-29T21:08:20.584Z,96409.72
2019-01-29T21:10:47.590Z,96414.01
2019-01-29T21:13:14.518Z,96414.81
2019-01-29T21:15:41.451Z,96404.67
2019-01-29T21:18:11.739Z,96405.14
2019-01-29T21:20:39.097Z,96404.04
2019-01-29T21:23:09.868Z,96404.54
2019-01-29T21:25:39.000Z,96405.30
2019-01-29T21:28:09.958Z,96400.72
2019-01-29T21:30:38.977Z,96392.95
2019-01-29T21:33:06.087Z,96399.97
2019-01-29T21:35:32.998Z,96397.98
2019-01-29T21:37:59.954Z,96397.60
2019-01-29T21:40:34.876Z,96394.32
2019-01-29T21:43:08.973Z,96392.49
2019-01-29T21:48:29.280Z,96392.32
2019-01-29T21:50:58.447Z,96389.52
2019-01-29T21:56:12.794Z,96382.59
2019-01-29T21:58:42.468Z,96375.38
2019-01-29T22:01:13.639Z,96373.72
2019-01-29T22:03:40.414Z,96374.16
2019-01-29T22:06:07.309Z,96367.77
2019-01-29T22:08:33.943Z,96369.07
2019-01-29T22:11:01.959Z,96363.22
2019-01-29T22:13:28.616Z,96362.41
2019-01-29T22:15:55.553Z,96364.71
2019-01-29T22:18:22.415Z,96365.52
2019-01-29T22:20:49.018Z,96360.45
2019-01-29T22:23:15.722Z,96357.54
2019-01-29T22:25:42.472Z,96361.84
2019-01-29T22:28:09.093Z,96357.30
2019-01-29T22:30:35.855Z,96358.84
2019-01-29T22:33:02.764Z,96357.00
2019-01-29T22:35:29.383Z,96355.45
2019-01-29T22:37:56.114Z,96351.88
2019-01-29T22:40:23.041Z,96354.95
2019-01-29T22:42:49.805Z,96347.23
2019-01-29T22:45:16.468Z,96345.87
2019-01-29T22:47:43.541Z,96345.64
2019-01-29T22:50:10.394Z,96348.31
2019-01-29T22:52:37.356Z,96337.84
2019-01-29T22:55:04.466Z,96339.89
2019-01-29T23:00:19.724Z,96326.03
2019-01-29T23:02:46.448Z,96325.86
2019-01-29T23:05:13.273Z,96322.81
2019-01-29T23:07:40.061Z,96317.88
2019-01-29T23:10:06.742Z,96316.64
2019-01-29T23:12:36.947Z,96312.47
2019-01-29T23:15:21.690Z,96317.09
2019-01-29T23:17:53.069Z,96311.39
2019-01-29T23:20:20.678Z,96309.45
2019-01-29T23:22:50.349Z,96307.03
2019-01-29T23:25:19.522Z,96301.51
2019-01-29T23:27:47.278Z,96304.29
2019-01-29T23:30:18.553Z,96293.55
2019-01-29T23:32:46.634Z,96287.63
2019-01-29T23:35:19.855Z,96282.56
2019-01-29T23:37:47.221Z,96281.20
2019-01-29T23:40:14.674Z,96277.89
2019-01-29T23:42:45.603Z,96274.86
2019-01-29T23:45:13.278Z,96265.09
2019-01-29T23:47:46.771Z,96262.44
2019-01-29T23:53:03.017Z,96258.31
2019-01-29T23:55:32.938Z,96253.34
2019-01-29T23:58:00.256Z,96250.23
